Time;durP1;ratioP1;P1;durP2;ratioP2;P2;SDS_P1;SDS_P2;PMS_P1;PMS_P2;Temp;Humidity;BMP_temperature;BMP_pressure;BME280_temperature;BME280_humidity;BME280_pressure;Samples;Min_cycle;Max_cycle;Signal;HPM_P1;HPM_P2
2021/10/20 00:00:09;;;;;;;1.48;0.63;;;;;;;15.94;79.25;98988.69;4990591;28;20046;-52
2021/10/20 00:02:36;;;;;;;0.65;0.65;;;;;;;15.93;78.92;98980.91;4993486;28;20069;-56
2021/10/20 00:05:04;;;;;;;1.15;0.35;;;;;;;15.89;79.21;98980.22;4984957;28;20145;-55
2021/10/20 00:07:31;;;;;;;0.43;0.32;;;;;;;15.89;79.79;98974.13;4991583;28;20050;-52
2021/10/20 00:09:57;;;;;;;0.52;0.40;;;;;;;15.89;79.30;98967.16;4988585;28;20046;-53
2021/10/20 00:12:24;;;;;;;0.50;0.43;;;;;;;15.89;79.09;98959.34;4994257;28;20096;-53
2021/10/20 00:14:50;;;;;;;0.75;0.60;;;;;;;15.89;79.03;98943.66;4993935;28;20092;-54
2021/10/20 00:17:17;;;;;;;0.88;0.45;;;;;;;15.90;79.22;98940.13;4997915;28;20108;-55
2021/10/20 00:19:47;;;;;;;1.30;0.40;;;;;;;15.90;79.72;98934.91;4991865;28;20074;-54
2021/10/20 00:22:13;;;;;;;1.40;0.65;;;;;;;15.90;79.40;98924.47;4986594;28;20101;-52
2021/10/20 00:24:40;;;;;;;1.92;0.52;;;;;;;15.90;79.87;98919.25;4994966;28;20105;-53
2021/10/20 00:27:07;;;;;;;4.15;1.50;;;;;;;15.88;80.03;98913.22;4988260;28;20046;-55
2021/10/20 00:29:33;;;;;;;2.00;0.80;;;;;;;15.89;79.75;98901.88;4999419;28;20045;-56
2021/10/20 00:32:00;;;;;;;1.92;0.90;;;;;;;15.86;79.82;98891.56;4996615;28;20593;-53
2021/10/20 00:34:26;;;;;;;2.03;1.00;;;;;;;15.88;79.12;98875.84;4991313;28;20051;-52
2021/10/20 00:36:53;;;;;;;1.13;0.80;;;;;;;15.85;79.76;98874.22;4983382;28;20174;-56
2021/10/20 00:39:20;;;;;;;1.17;0.75;;;;;;;15.85;80.28;98879.44;4992406;28;20058;-53
2021/10/20 00:41:46;;;;;;;2.03;0.63;;;;;;;15.84;80.36;98869.06;4993745;28;20046;-53
2021/10/20 00:44:13;;;;;;;2.67;0.90;;;;;;;15.84;79.57;98872.50;4989143;28;20057;-55
2021/10/20 00:46:40;;;;;;;1.92;1.48;;;;;;;15.85;79.85;98895.09;4988035;28;20058;-56
2021/10/20 00:49:07;;;;;;;5.35;1.73;;;;;;;15.87;79.65;98911.53;4988359;28;20359;-54
2021/10/20 00:51:33;;;;;;;3.42;1.80;;;;;;;15.89;79.54;98912.34;4983861;28;20112;-56
2021/10/20 00:54:00;;;;;;;2.47;1.33;;;;;;;15.91;79.22;98909.66;4989930;28;20108;-54
2021/10/20 00:56:28;;;;;;;5.55;2.28;;;;;;;15.90;79.97;98897.50;4990434;28;20046;-53
2021/10/20 00:58:55;;;;;;;9.93;3.97;;;;;;;15.91;80.33;98918.31;5000755;28;20050;-53
2021/10/20 01:01:22;;;;;;;6.80;3.15;;;;;;;15.93;79.97;98924.34;4992040;28;20629;-55
2021/10/20 01:03:49;;;;;;;8.63;2.55;;;;;;;15.94;79.91;98922.56;4989769;28;20093;-52
2021/10/20 01:06:17;;;;;;;1.60;1.00;;;;;;;15.97;79.83;98914.63;4984661;28;20626;-53
2021/10/20 01:08:44;;;;;;;2.95;1.20;;;;;;;15.98;79.68;98887.63;4992988;28;20042;-53
2021/10/20 01:11:10;;;;;;;1.88;0.75;;;;;;;15.99;79.56;98876.25;4994227;28;20046;-55
2021/10/20 01:13:37;;;;;;;2.35;1.02;;;;;;;15.98;79.12;98871.09;4990789;28;20041;-57
2021/10/20 01:16:04;;;;;;;2.92;0.80;;;;;;;15.97;80.30;98872.84;4987517;28;20045;-55
2021/10/20 01:18:31;;;;;;;2.05;1.33;;;;;;;15.96;79.87;98870.31;4986267;28;20088;-53
2021/10/20 01:21:03;;;;;;;1.80;0.80;;;;;;;16.00;80.02;98877.09;4988120;28;20103;-56
2021/10/20 01:23:30;;;;;;;1.27;0.95;;;;;;;15.99;79.50;98878.00;4988308;28;20050;-56
2021/10/20 01:25:56;;;;;;;8.48;1.05;;;;;;;16.01;79.79;98868.34;4991800;28;20121;-56
2021/10/20 01:28:23;;;;;;;1.55;0.90;;;;;;;16.01;79.58;98863.13;4997808;28;20077;-56
2021/10/20 01:30:50;;;;;;;2.72;0.98;;;;;;;15.99;79.78;98865.81;4994579;28;20042;-56
2021/10/20 01:33:16;;;;;;;3.05;1.00;;;;;;;15.97;79.77;98866.78;4994390;28;20050;-55
2021/10/20 01:35:43;;;;;;;1.77;0.93;;;;;;;15.98;79.32;98856.28;4994547;28;20472;-56
2021/10/20 01:38:10;;;;;;;2.40;0.85;;;;;;;15.97;79.72;98856.34;4991388;28;20073;-53
2021/10/20 01:40:36;;;;;;;2.00;0.75;;;;;;;15.96;79.24;98857.25;4994454;28;20077;-55
2021/10/20 01:43:03;;;;;;;1.83;0.98;;;;;;;15.98;79.76;98852.81;4998109;28;20043;-54
2021/10/20 01:45:30;;;;;;;1.67;0.90;;;;;;;15.98;79.70;98852.81;4996878;28;20128;-54
2021/10/20 01:47:57;;;;;;;3.00;1.08;;;;;;;15.99;79.54;98854.50;4989549;28;20042;-56
2021/10/20 01:50:24;;;;;;;3.35;0.85;;;;;;;16.00;79.61;98858.81;4995116;28;20042;-55
2021/10/20 01:52:50;;;;;;;2.65;0.95;;;;;;;16.00;79.28;98864.03;4991319;28;20051;-56
2021/10/20 01:55:17;;;;;;;2.08;1.08;;;;;;;16.01;79.92;98863.13;4993615;28;20046;-53
2021/10/20 01:57:44;;;;;;;1.67;0.88;;;;;;;15.99;79.52;98846.66;5001543;28;20049;-53
2021/10/20 02:00:12;;;;;;;2.53;0.90;;;;;;;15.98;79.15;98843.22;4993297;28;20054;-54
2021/10/20 02:02:38;;;;;;;2.38;1.25;;;;;;;15.95;79.67;98832.91;4990183;28;20042;-52
2021/10/20 02:05:08;;;;;;;1.83;0.82;;;;;;;15.93;79.57;98830.34;4992616;28;20050;-52
2021/10/20 02:07:36;;;;;;;2.28;1.42;;;;;;;15.90;79.48;98835.69;4987797;28;20494;-56
2021/10/20 02:10:06;;;;;;;1.45;1.00;;;;;;;15.89;79.73;98841.84;4990687;28;20114;-56
2021/10/20 02:12:33;;;;;;;2.20;0.82;;;;;;;15.89;79.79;98827.91;4993400;28;20106;-53
2021/10/20 02:14:59;;;;;;;2.67;1.00;;;;;;;15.87;80.03;98830.59;4990335;28;20526;-53
2021/10/20 02:17:26;;;;;;;4.47;0.85;;;;;;;15.87;79.39;98822.75;4990297;28;20081;-56
2021/10/20 02:19:52;;;;;;;5.43;1.65;;;;;;;15.86;79.39;98820.22;4994770;28;20077;-52
2021/10/20 02:22:19;;;;;;;4.07;1.35;;;;;;;15.83;79.34;98816.00;4987447;28;20046;-52
2021/10/20 02:24:46;;;;;;;3.22;1.05;;;;;;;15.84;79.47;98815.06;4998391;28;20054;-52
2021/10/20 02:27:12;;;;;;;3.75;1.48;;;;;;;15.81;79.75;98805.59;4990244;28;20502;-52
2021/10/20 02:29:39;;;;;;;3.47;1.90;;;;;;;15.80;79.83;98803.91;4986662;28;20062;-55
2021/10/20 02:32:07;;;;;;;3.85;1.70;;;;;;;15.77;79.67;98803.22;4992124;28;20093;-53
2021/10/20 02:34:34;;;;;;;3.38;1.60;;;;;;;15.79;79.88;98804.00;4990421;28;20050;-52
2021/10/20 02:37:01;;;;;;;4.35;1.52;;;;;;;15.77;79.41;98808.44;4994070;28;20697;-53
2021/10/20 02:39:27;;;;;;;3.00;1.35;;;;;;;15.78;79.64;98799.69;4990890;28;20144;-53
2021/10/20 02:41:54;;;;;;;2.55;1.45;;;;;;;15.79;79.13;98790.94;4989864;28;20100;-54
2021/10/20 02:44:20;;;;;;;3.30;1.38;;;;;;;15.80;79.67;98787.41;4991476;28;20046;-52
2021/10/20 02:46:47;;;;;;;2.45;1.30;;;;;;;15.80;79.62;98779.56;4990028;28;20062;-53
2021/10/20 02:49:13;;;;;;;2.15;1.38;;;;;;;15.79;79.63;98767.44;4995018;28;20050;-53
2021/10/20 02:51:40;;;;;;;1.98;0.93;;;;;;;15.77;80.43;98761.47;4988119;28;20109;-54
2021/10/20 02:54:07;;;;;;;2.63;1.20;;;;;;;15.80;79.46;98754.31;4992475;28;20101;-56
2021/10/20 02:56:33;;;;;;;3.20;0.88;;;;;;;15.80;79.56;98756.06;4990740;28;20053;-52
2021/10/20 02:59:00;;;;;;;3.10;1.05;;;;;;;15.81;79.54;98753.41;4989022;28;20038;-52
2021/10/20 03:01:26;;;;;;;3.13;1.20;;;;;;;15.80;79.44;98743.03;4990649;28;20053;-52
2021/10/20 03:03:53;;;;;;;1.80;1.20;;;;;;;15.80;79.62;98735.19;4990550;28;20042;-53
2021/10/20 03:06:20;;;;;;;2.00;0.75;;;;;;;15.78;79.45;98740.47;4990023;28;20101;-52
2021/10/20 03:08:48;;;;;;;2.65;1.02;;;;;;;15.78;79.06;98742.25;4986880;28;20100;-54
2021/10/20 03:11:15;;;;;;;3.88;1.85;;;;;;;15.78;79.44;98740.47;4994728;28;20133;-55
2021/10/20 03:13:41;;;;;;;3.00;1.17;;;;;;;15.80;79.32;98735.19;4992115;28;20050;-55
2021/10/20 03:16:08;;;;;;;3.47;1.25;;;;;;;15.80;79.54;98737.78;4985752;28;20077;-53
2021/10/20 03:18:35;;;;;;;3.72;1.02;;;;;;;15.81;79.05;98734.28;4993756;28;20041;-53
2021/10/20 03:21:01;;;;;;;5.57;1.08;;;;;;;15.83;79.33;98740.28;4988861;28;20111;-52
2021/10/20 03:23:28;;;;;;;2.85;1.00;;;;;;;15.81;79.18;98726.47;4993804;28;20050;-52
2021/10/20 03:25:55;;;;;;;3.38;1.10;;;;;;;15.80;79.03;98722.13;4998644;28;20441;-55
2021/10/20 03:28:22;;;;;;;6.80;1.10;;;;;;;15.79;78.82;98712.63;4988798;28;20078;-56
2021/10/20 03:30:49;;;;;;;3.95;1.05;;;;;;;15.79;79.46;98712.63;4987866;28;20423;-55
2021/10/20 03:33:15;;;;;;;3.25;0.98;;;;;;;15.78;78.82;98695.28;4990387;28;20046;-56
2021/10/20 03:35:42;;;;;;;2.88;1.00;;;;;;;15.78;79.34;98695.28;4988298;28;20050;-55
2021/10/20 03:38:11;;;;;;;4.43;1.23;;;;;;;15.78;78.54;98684.84;4985940;28;20043;-55
2021/10/20 03:40:37;;;;;;;3.38;1.00;;;;;;;15.76;79.43;98694.47;4999538;28;20057;-53
2021/10/20 03:43:05;;;;;;;2.95;1.05;;;;;;;15.74;79.20;98704.16;4992169;28;20096;-56
2021/10/20 03:45:31;;;;;;;2.97;1.20;;;;;;;15.71;79.08;98714.75;4987427;28;20078;-56
2021/10/20 03:47:58;;;;;;;4.70;1.80;;;;;;;15.68;79.46;98708.72;4990382;28;20116;-55
2021/10/20 03:50:25;;;;;;;5.40;1.58;;;;;;;15.67;78.83;98716.63;4986505;28;20096;-56
2021/10/20 03:52:51;;;;;;;4.68;1.10;;;;;;;15.66;78.84;98700.13;4994059;28;20113;-54
2021/10/20 03:55:18;;;;;;;2.85;1.10;;;;;;;15.66;78.64;98671.44;4991912;28;20042;-54
2021/10/20 03:57:45;;;;;;;4.78;1.27;;;;;;;15.66;78.90;98657.53;4990861;28;20077;-55
2021/10/20 04:00:15;;;;;;;2.80;1.30;;;;;;;15.64;79.04;98657.59;4988506;28;20461;-54
2021/10/20 04:02:44;;;;;;;5.10;1.85;;;;;;;15.64;79.08;98660.19;4991520;28;20050;-52
2021/10/20 04:05:13;;;;;;;5.88;1.80;;;;;;;15.62;79.29;98664.66;4992616;28;20119;-53
2021/10/20 04:07:40;;;;;;;3.45;1.42;;;;;;;15.61;78.89;98662.97;4987851;28;20100;-55
2021/10/20 04:10:10;;;;;;;7.35;1.75;;;;;;;15.61;79.54;98662.97;4985091;28;20062;-53
2021/10/20 04:12:37;;;;;;;4.85;1.70;;;;;;;15.59;78.78;98667.41;4989816;28;20058;-54
2021/10/20 04:15:04;;;;;;;3.78;1.48;;;;;;;15.60;78.90;98666.47;4989361;28;20100;-53
2021/10/20 04:17:31;;;;;;;3.33;1.88;;;;;;;15.60;79.31;98660.44;4988168;28;20097;-55
2021/10/20 04:19:58;;;;;;;4.32;1.17;;;;;;;15.61;78.91;98644.69;4989637;28;20112;-54
2021/10/20 04:22:25;;;;;;;5.30;1.58;;;;;;;15.61;79.28;98636.03;4989053;28;20059;-57
2021/10/20 04:24:52;;;;;;;5.22;1.95;;;;;;;15.62;79.09;98628.13;4987661;28;20128;-55
2021/10/20 04:27:18;;;;;;;2.83;1.52;;;;;;;15.63;79.16;98624.59;4994988;28;20055;-54
2021/10/20 04:29:45;;;;;;;5.22;2.25;;;;;;;15.63;79.11;98626.34;4990111;28;20483;-55
2021/10/20 04:32:11;;;;;;;4.00;2.03;;;;;;;15.62;78.90;98632.47;4991619;28;20049;-57
2021/10/20 04:34:38;;;;;;;5.28;1.30;;;;;;;15.62;78.87;98629.88;4990968;28;20560;-55
2021/10/20 04:37:05;;;;;;;7.28;2.10;;;;;;;15.63;79.24;98613.28;4994576;28;20058;-57
2021/10/20 04:39:31;;;;;;;6.20;1.70;;;;;;;15.62;79.05;98612.47;4986927;28;20047;-55
2021/10/20 04:41:58;;;;;;;5.03;1.27;;;;;;;15.61;78.49;98587.28;4989497;28;20109;-54
2021/10/20 04:44:24;;;;;;;4.97;1.90;;;;;;;15.61;79.22;98581.22;4994818;28;20204;-55
2021/10/20 04:46:51;;;;;;;4.38;1.50;;;;;;;15.58;78.43;98582.22;4989549;28;20051;-56
2021/10/20 04:49:18;;;;;;;6.78;2.10;;;;;;;15.56;78.88;98589.25;4993738;28;20072;-53
2021/10/20 04:51:44;;;;;;;7.20;1.98;;;;;;;15.53;79.06;98589.38;4986936;28;20180;-53
2021/10/20 04:54:11;;;;;;;8.77;2.65;;;;;;;15.49;79.08;98580.88;4988236;28;20058;-53
2021/10/20 04:56:37;;;;;;;7.93;2.33;;;;;;;15.46;78.92;98574.94;4988223;28;20433;-54
2021/10/20 04:59:04;;;;;;;5.95;1.95;;;;;;;15.44;78.65;98576.78;4990051;28;20042;-54
2021/10/20 05:01:31;;;;;;;8.57;2.22;;;;;;;15.36;78.48;98564.94;4989456;28;20255;-53
2021/10/20 05:03:59;;;;;;;4.93;2.40;;;;;;;15.33;78.81;98562.47;4991028;28;20483;-53
2021/10/20 05:06:25;;;;;;;5.15;1.67;;;;;;;15.30;79.01;98565.22;4991691;28;20395;-53
2021/10/20 05:08:52;;;;;;;6.80;1.95;;;;;;;15.25;78.94;98561.97;4990527;28;20050;-53
2021/10/20 05:11:18;;;;;;;6.80;1.90;;;;;;;15.23;78.56;98562.06;4990311;28;20081;-53
2021/10/20 05:13:45;;;;;;;5.25;3.08;;;;;;;15.21;79.22;98570.88;4992010;28;20085;-52
2021/10/20 05:16:12;;;;;;;5.40;1.80;;;;;;;15.18;78.55;98550.13;4996710;28;20053;-53
2021/10/20 05:18:38;;;;;;;7.03;2.08;;;;;;;15.14;78.68;98550.28;4997775;28;20066;-54
2021/10/20 05:21:05;;;;;;;3.38;1.33;;;;;;;15.14;79.24;98552.06;4992369;28;20054;-55
2021/10/20 05:23:31;;;;;;;11.30;2.35;;;;;;;15.13;79.17;98560.81;4992522;28;20050;-53
2021/10/20 05:25:58;;;;;;;10.52;2.20;;;;;;;15.13;78.89;98548.59;4991543;28;20055;-53
2021/10/20 05:28:25;;;;;;;6.20;1.98;;;;;;;15.15;79.27;98546.78;4998018;28;20100;-54
2021/10/20 05:30:51;;;;;;;5.63;2.33;;;;;;;15.15;79.29;98578.06;4990965;28;20105;-54
2021/10/20 05:33:18;;;;;;;8.00;2.08;;;;;;;15.16;79.11;98584.97;4997924;28;20407;-53
2021/10/20 05:35:44;;;;;;;13.93;2.17;;;;;;;15.17;78.73;98570.16;4997494;28;20103;-54
2021/10/20 05:38:11;;;;;;;8.50;1.75;;;;;;;15.14;78.66;98550.28;4993092;28;20470;-56
2021/10/20 05:40:38;;;;;;;10.68;1.52;;;;;;;15.12;78.48;98557.34;4989006;28;20731;-55
2021/10/20 05:43:04;;;;;;;3.80;1.25;;;;;;;15.09;78.67;98565.28;4991628;28;20062;-57
2021/10/20 05:45:31;;;;;;;3.08;0.88;;;;;;;15.00;77.72;98565.72;4993472;28;20065;-56
2021/10/20 05:47:58;;;;;;;1.60;0.95;;;;;;;14.93;77.05;98559.09;4992160;28;20458;-57
2021/10/20 05:50:24;;;;;;;2.65;0.95;;;;;;;14.80;77.17;98572.66;4994974;28;20058;-57
2021/10/20 05:52:51;;;;;;;4.10;0.55;;;;;;;14.71;77.17;98579.09;4995067;28;20104;-57
2021/10/20 05:55:18;;;;;;;4.75;1.13;;;;;;;14.63;76.54;98587.22;4993457;28;20433;-53
2021/10/20 05:57:44;;;;;;;2.00;0.88;;;;;;;14.52;76.86;98559.03;4992573;28;20301;-53
2021/10/20 06:00:12;;;;;;;1.70;0.77;;;;;;;14.46;77.30;98553.25;4988330;28;20458;-57
2021/10/20 06:02:39;;;;;;;2.15;0.43;;;;;;;14.39;77.02;98553.50;4997060;28;20051;-55
2021/10/20 06:05:06;;;;;;;0.90;0.63;;;;;;;14.34;77.06;98534.63;4989797;28;20054;-57
2021/10/20 06:07:39;;;;;;;2.50;1.08;;;;;;;14.27;76.64;98533.19;4993003;28;20072;-55
2021/10/20 06:10:06;;;;;;;2.33;0.45;;;;;;;14.22;76.46;98528.16;4991071;28;20042;-57
2021/10/20 06:12:32;;;;;;;1.60;1.02;;;;;;;14.16;77.00;98531.06;4982656;28;20108;-56
2021/10/20 06:14:59;;;;;;;1.73;1.00;;;;;;;14.09;76.83;98530.44;4996995;28;20461;-57
2021/10/20 06:17:26;;;;;;;1.55;0.98;;;;;;;14.05;77.19;98526.28;4993133;28;20109;-54
2021/10/20 06:19:52;;;;;;;1.90;0.68;;;;;;;14.01;77.11;98509.09;5001857;28;20100;-54
2021/10/20 06:22:19;;;;;;;1.80;0.30;;;;;;;13.99;76.81;98508.31;4989326;28;20128;-54
2021/10/20 06:24:45;;;;;;;1.13;0.63;;;;;;;13.94;77.02;98515.44;4990871;28;20046;-53
2021/10/20 06:27:12;;;;;;;0.90;0.50;;;;;;;13.92;77.04;98518.16;4993915;28;20049;-55
2021/10/20 06:29:39;;;;;;;1.23;0.65;;;;;;;13.88;76.84;98507.00;4992324;28;20046;-55
2021/10/20 06:32:05;;;;;;;1.30;0.60;;;;;;;13.87;77.38;98488.84;4993653;28;20046;-55
2021/10/20 06:34:32;;;;;;;2.30;0.65;;;;;;;13.83;77.71;98482.94;4988246;28;20048;-53
2021/10/20 06:36:59;;;;;;;3.00;0.77;;;;;;;13.84;76.51;98488.97;4989588;28;20058;-54
2021/10/20 06:39:25;;;;;;;0.82;0.28;;;;;;;13.84;77.55;98489.81;4990866;28;20403;-56
2021/10/20 06:41:52;;;;;;;0.90;0.60;;;;;;;13.81;77.24;98489.94;4984525;28;20089;-56
2021/10/20 06:44:19;;;;;;;0.75;0.75;;;;;;;13.78;77.01;98484.03;4986259;28;20427;-56
2021/10/20 06:46:47;;;;;;;3.53;0.45;;;;;;;13.74;76.72;98473.75;4983013;28;20050;-55
2021/10/20 06:49:14;;;;;;;1.38;0.35;;;;;;;13.74;77.58;98472.88;4999134;28;21020;-55
2021/10/20 06:51:41;;;;;;;1.00;0.40;;;;;;;13.74;76.74;98483.28;4988264;28;20069;-56
2021/10/20 06:54:07;;;;;;;1.58;0.85;;;;;;;13.73;77.64;98479.00;4992185;28;20584;-53
2021/10/20 06:56:34;;;;;;;0.95;0.65;;;;;;;13.72;77.12;98474.72;4988732;28;20128;-53
2021/10/20 06:59:00;;;;;;;1.33;0.75;;;;;;;13.71;78.02;98457.44;4997010;28;20062;-53
2021/10/20 07:01:27;;;;;;;0.45;0.45;;;;;;;13.73;77.10;98466.84;4989609;28;20042;-54
2021/10/20 07:03:54;;;;;;;0.32;0.25;;;;;;;13.73;77.77;98481.59;4989633;28;20081;-56
2021/10/20 07:06:26;;;;;;;2.97;0.60;;;;;;;13.69;76.62;98493.06;4983485;28;20055;-56
2021/10/20 07:08:53;;;;;;;1.48;0.63;;;;;;;13.64;76.69;98489.81;4984264;28;20114;-52
2021/10/20 07:11:19;;;;;;;3.92;0.85;;;;;;;13.62;76.92;98495.88;4986517;28;20145;-56
2021/10/20 07:13:46;;;;;;;3.53;0.77;;;;;;;13.57;77.00;98492.63;4981282;28;20050;-52
2021/10/20 07:16:12;;;;;;;2.67;0.43;;;;;;;13.52;77.57;98481.59;4991618;28;20049;-53
2021/10/20 07:18:39;;;;;;;2.47;0.40;;;;;;;13.47;77.47;98512.94;4985604;28;20062;-53
2021/10/20 07:21:06;;;;;;;0.52;0.45;;;;;;;13.44;78.15;98523.44;4983979;28;20042;-54
2021/10/20 07:23:33;;;;;;;0.70;0.30;;;;;;;13.41;78.30;98528.75;4987676;28;20046;-53
2021/10/20 07:25:59;;;;;;;0.50;0.50;;;;;;;13.39;76.92;98535.78;4981916;28;20057;-53
2021/10/20 07:28:26;;;;;;;1.20;0.63;;;;;;;13.35;77.95;98518.63;4987535;28;20101;-55
2021/10/20 07:30:52;;;;;;;0.75;0.35;;;;;;;13.33;77.27;98516.06;4983604;28;20054;-54
2021/10/20 07:33:19;;;;;;;1.65;0.63;;;;;;;13.30;77.40;98525.72;4989997;28;20123;-51
2021/10/20 07:35:46;;;;;;;0.82;0.55;;;;;;;13.27;77.33;98541.47;4982309;28;20054;-56
2021/10/20 07:38:12;;;;;;;1.08;0.43;;;;;;;13.23;77.89;98536.38;4988498;28;20104;-53
2021/10/20 07:40:39;;;;;;;1.77;0.45;;;;;;;13.23;77.51;98535.53;4987512;28;20100;-52
2021/10/20 07:43:06;;;;;;;3.28;0.50;;;;;;;13.20;77.84;98540.84;4984334;28;20529;-52
2021/10/20 07:45:32;;;;;;;1.02;0.20;;;;;;;13.18;78.32;98538.31;4983595;28;20050;-52
2021/10/20 07:47:59;;;;;;;4.03;0.80;;;;;;;13.20;78.28;98546.91;4983208;28;20645;-54
2021/10/20 07:50:25;;;;;;;5.25;0.30;;;;;;;13.15;77.86;98516.78;4986632;28;20411;-52
2021/10/20 07:52:52;;;;;;;3.30;0.52;;;;;;;13.14;78.32;98496.91;4992126;28;20070;-52
2021/10/20 07:55:25;;;;;;;1.40;0.45;;;;;;;13.13;77.41;98492.63;4989617;28;20271;-53
2021/10/20 07:57:54;;;;;;;3.05;0.52;;;;;;;13.14;77.60;98500.31;4983559;28;20589;-56
2021/10/20 08:00:21;;;;;;;1.88;0.43;;;;;;;13.15;78.07;98493.38;4986848;28;20049;-55
2021/10/20 08:02:48;;;;;;;2.20;0.47;;;;;;;13.16;77.32;98500.28;4986137;28;20556;-55
2021/10/20 08:05:15;;;;;;;1.27;0.40;;;;;;;13.21;77.40;98506.16;4987482;28;20146;-54
2021/10/20 08:07:45;;;;;;;2.28;0.43;;;;;;;13.33;77.98;98500.47;4987035;28;20112;-55
2021/10/20 08:10:15;;;;;;;2.95;0.65;;;;;;;13.66;78.60;98498.38;4985869;28;20046;-56
2021/10/20 08:12:44;;;;;;;2.00;0.30;;;;;;;14.32;78.90;98489.56;4983183;28;20054;-55
2021/10/20 08:15:14;;;;;;;1.75;0.40;;;;;;;15.04;77.52;98484.66;4988950;28;20054;-52
2021/10/20 08:17:41;;;;;;;;;;;;;;;15.54;77.26;98473.69;4992307;28;20050;-55
2021/10/20 08:20:10;;;;;;;0.90;0.65;;;;;;;16.16;75.49;98460.19;4989253;28;19976;-55
2021/10/20 08:22:37;;;;;;;2.83;1.25;;;;;;;16.78;74.12;98452.63;4996027;28;20057;-52
2021/10/20 08:25:05;;;;;;;0.45;0.45;;;;;;;17.36;72.44;98442.53;4988439;28;20121;-55
2021/10/20 08:27:32;;;;;;;0.57;0.30;;;;;;;18.26;69.86;98459.22;4999372;28;20112;-53
2021/10/20 08:30:02;;;;;;;0.82;0.25;;;;;;;18.96;69.08;98466.34;4987529;28;20111;-52
2021/10/20 08:32:29;;;;;;;2.88;0.70;;;;;;;19.59;66.29;98459.78;4986813;28;20055;-56
2021/10/20 08:34:55;;;;;;;1.40;0.30;;;;;;;19.63;65.54;98466.53;4994593;28;20061;-56
2021/10/20 08:37:22;;;;;;;0.55;0.50;;;;;;;19.69;64.36;98465.28;4985566;28;20050;-54
2021/10/20 08:39:49;;;;;;;2.10;0.70;;;;;;;19.65;64.29;98467.25;4995602;28;20041;-53
2021/10/20 08:42:16;;;;;;;0.50;0.32;;;;;;;20.46;64.10;98459.25;4993538;28;20050;-54
2021/10/20 08:45:03;;;;;;;0.52;0.52;;;;;;;21.06;62.18;98463.91;4986682;28;20058;-55
2021/10/20 08:48:18;;;;;;;0.80;0.50;;;;;;;21.21;58.99;98463.75;4992991;28;20050;-53
2021/10/20 08:50:50;;;;;;;1.15;0.40;;;;;;;20.58;59.29;98459.34;4980422;28;20449;-56
2021/10/20 08:53:18;;;;;;;2.72;0.43;;;;;;;19.80;60.55;98457.53;5004404;28;20058;-55
2021/10/20 08:55:47;;;;;;;1.38;0.57;;;;;;;19.21;62.05;98467.41;4999756;28;20140;-53
2021/10/20 08:58:14;;;;;;;1.27;1.05;;;;;;;18.77;63.87;98468.44;4990906;28;21746;-55
2021/10/20 09:00:42;;;;;;;0.82;0.50;;;;;;;18.54;64.26;98462.81;4991822;28;20136;-54
2021/10/20 09:03:10;;;;;;;2.10;0.57;;;;;;;18.32;63.84;98464.97;4989964;28;20043;-54
2021/10/20 09:05:37;;;;;;;1.67;0.63;;;;;;;18.02;64.35;98468.44;4991474;28;20755;-52
2021/10/20 09:08:05;;;;;;;0.60;0.20;;;;;;;17.90;65.00;98463.94;4995468;28;20042;-53
2021/10/20 09:10:32;;;;;;;0.70;0.50;;;;;;;18.28;65.79;98462.63;4989259;28;20045;-55
2021/10/20 09:13:00;;;;;;;5.53;0.60;;;;;;;19.24;64.66;98450.63;4992602;28;20407;-54
2021/10/20 09:15:29;;;;;;;1.50;0.70;;;;;;;19.55;61.51;98447.81;4988306;28;20046;-54
2021/10/20 09:18:01;;;;;;;1.65;0.95;;;;;;;20.28;61.55;98446.44;4993482;28;20410;-55
2021/10/20 09:20:35;;;;;;;0.88;0.50;;;;;;;21.14;59.32;98437.03;4989724;28;20057;-53
2021/10/20 09:23:21;;;;;;;1.23;0.40;;;;;;;21.96;57.49;98435.44;5001203;28;20054;-52
2021/10/20 09:25:58;;;;;;;2.40;1.35;;;;;;;22.53;55.61;98427.53;4996324;28;20042;-55
2021/10/20 09:28:34;;;;;;;2.80;0.52;;;;;;;23.21;54.87;98423.13;4993653;28;20057;-53
2021/10/20 09:31:22;;;;;;;1.92;0.65;;;;;;;24.00;54.76;98423.72;4995737;28;20435;-54
2021/10/20 09:33:50;;;;;;;1.45;0.93;;;;;;;24.37;52.21;98420.59;4991824;28;20100;-54
2021/10/20 09:36:20;;;;;;;1.88;0.88;;;;;;;24.90;50.61;98416.03;4999726;28;20046;-55
2021/10/20 09:38:49;;;;;;;1.40;0.52;;;;;;;25.26;50.54;98399.63;4990873;28;20073;-56
2021/10/20 09:41:18;;;;;;;1.90;0.60;;;;;;;25.55;48.79;98403.25;4995451;28;20073;-56
2021/10/20 09:43:53;;;;;;;0.95;0.52;;;;;;;25.95;46.96;98408.50;4995350;28;20054;-54
2021/10/20 09:46:42;;;;;;;2.00;0.52;;;;;;;26.27;47.88;98386.06;4992020;28;20049;-55
2021/10/20 09:49:17;;;;;;;1.95;1.27;;;;;;;26.65;45.42;98381.53;5004718;28;20054;-55
2021/10/20 09:51:44;;;;;;;1.08;0.75;;;;;;;26.82;46.69;98373.78;4996739;28;20046;-53
2021/10/20 09:54:21;;;;;;;2.53;0.77;;;;;;;27.19;46.45;98380.78;4992436;28;20354;-52
2021/10/20 09:56:53;;;;;;;1.65;0.52;;;;;;;27.23;44.09;98380.47;4994864;28;20050;-54
2021/10/20 09:59:20;;;;;;;3.30;0.50;;;;;;;26.64;45.80;98361.28;4990487;28;20046;-56
2021/10/20 10:01:47;;;;;;;3.50;0.93;;;;;;;26.63;46.55;98354.31;4996810;28;20129;-54
2021/10/20 10:04:15;;;;;;;1.13;0.57;;;;;;;26.59;45.24;98358.25;5000755;28;20380;-53
2021/10/20 10:06:45;;;;;;;3.45;0.75;;;;;;;26.50;45.01;98375.06;5002935;28;20054;-55
2021/10/20 10:09:25;;;;;;;1.50;0.90;;;;;;;26.19;45.17;98373.50;4995743;28;20072;-55
2021/10/20 10:11:56;;;;;;;;;;;;;;;25.26;45.91;98367.00;4990670;28;20096;-53
2021/10/20 10:14:28;;;;;;;0.93;0.57;;;;;;;24.39;46.79;98372.84;4996104;28;20317;-54
2021/10/20 10:16:59;;;;;;;1.30;0.43;;;;;;;23.65;47.82;98361.47;4999546;28;20128;-55
2021/10/20 10:19:29;;;;;;;1.55;0.80;;;;;;;22.96;50.04;98361.75;4996675;28;20479;-55
2021/10/20 10:21:57;;;;;;;2.03;0.22;;;;;;;22.52;50.83;98359.94;4994773;28;20048;-56
2021/10/20 10:24:34;;;;;;;1.23;0.88;;;;;;;22.08;51.16;98360.69;4988231;28;20080;-55
2021/10/20 10:27:05;;;;;;;3.25;1.23;;;;;;;21.65;52.25;98348.16;4989248;28;20085;-55
2021/10/20 10:29:35;;;;;;;1.70;0.88;;;;;;;21.52;52.46;98330.63;4986445;28;20056;-54
2021/10/20 10:32:06;;;;;;;2.78;1.02;;;;;;;21.82;52.28;98334.53;4988812;28;20050;-53
2021/10/20 10:34:37;;;;;;;4.93;0.68;;;;;;;21.96;51.69;98327.38;4995359;28;20049;-52
2021/10/20 10:37:05;;;;;;;3.63;1.48;;;;;;;21.71;51.48;98329.22;4991595;28;20054;-53
2021/10/20 10:39:33;;;;;;;2.53;0.68;;;;;;;21.39;52.76;98325.47;4988104;28;20051;-52
2021/10/20 10:42:02;;;;;;;2.35;0.95;;;;;;;21.21;53.67;98332.94;4988754;28;20046;-54
2021/10/20 10:44:30;;;;;;;;;;;;;;;21.02;52.70;98315.91;4998234;28;20046;-54
2021/10/20 10:47:15;;;;;;;4.53;0.77;;;;;;;21.06;53.98;98329.66;4988716;28;19922;-53
2021/10/20 10:49:53;;;;;;;4.72;1.00;;;;;;;20.87;53.72;98314.38;4993959;28;20050;-54
2021/10/20 10:52:27;;;;;;;1.67;0.85;;;;;;;20.67;54.56;98320.13;4997523;28;20045;-52
2021/10/20 10:55:22;;;;;;;5.90;0.68;;;;;;;20.49;55.09;98317.03;4990669;28;20431;-55
2021/10/20 10:58:00;;;;;;;1.42;0.60;;;;;;;20.17;55.05;98317.56;4993370;28;20062;-54
2021/10/20 11:00:33;;;;;;;3.40;0.80;;;;;;;19.93;55.39;98307.78;4994538;28;20053;-52
2021/10/20 11:03:21;;;;;;;2.72;0.55;;;;;;;19.64;56.15;98310.63;4987699;28;20049;-52
2021/10/20 11:05:54;;;;;;;2.60;0.40;;;;;;;19.45;55.94;98303.19;4998728;28;20129;-53
2021/10/20 11:08:22;;;;;;;2.85;0.60;;;;;;;19.30;57.33;98292.75;4995300;28;20056;-54
2021/10/20 11:10:49;;;;;;;2.42;0.65;;;;;;;19.30;57.68;98286.66;4991106;28;20047;-54
2021/10/20 11:13:16;;;;;;;4.22;0.82;;;;;;;19.19;57.33;98292.63;4995362;28;20049;-56
2021/10/20 11:15:45;;;;;;;1.90;0.73;;;;;;;19.06;57.29;98293.47;4989927;28;20061;-52
2021/10/20 11:18:12;;;;;;;2.15;0.45;;;;;;;18.98;57.90;98283.44;5002030;28;20050;-54
2021/10/20 11:20:45;;;;;;;3.10;0.68;;;;;;;18.94;57.98;98291.59;4989816;28;20043;-54
2021/10/20 11:23:15;;;;;;;2.15;0.63;;;;;;;19.00;58.51;98281.56;4997735;28;20507;-53
2021/10/20 11:25:44;;;;;;;1.80;0.60;;;;;;;18.95;58.15;98278.38;4990024;28;20109;-52
2021/10/20 11:28:11;;;;;;;3.67;1.05;;;;;;;18.90;58.52;98272.59;4991051;28;20111;-51
2021/10/20 11:30:40;;;;;;;4.72;0.63;;;;;;;18.82;58.72;98261.78;4995700;28;20152;-52
2021/10/20 11:33:11;;;;;;;4.28;0.82;;;;;;;18.60;57.20;98268.41;4991818;28;20109;-51
2021/10/20 11:35:39;;;;;;;2.40;0.73;;;;;;;18.27;57.70;98261.78;4993514;28;20046;-52
2021/10/20 11:38:09;;;;;;;4.72;0.90;;;;;;;18.08;57.79;98262.91;4995200;28;20097;-51